createdAt,value
2018-10-21T00:02:41.214Z,34.50
2018-10-21T00:03:40.123Z,28.10
2018-10-21T00:04:40.962Z,34.50
2018-10-21T00:05:39.995Z,21.80
2018-10-21T00:06:39.911Z,66.20
2018-10-21T00:07:39.913Z,27.70
2018-10-21T00:10:39.218Z,45.70
2018-10-21T00:11:54.744Z,83.00
2018-10-21T00:12:48.646Z,92.20
2018-10-21T00:13:39.723Z,40.80
2018-10-21T00:14:39.605Z,52.30
2018-10-21T00:16:54.253Z,20.60
2018-10-21T00:18:06.423Z,53.00
2018-10-21T00:18:54.288Z,70.30
2018-10-21T00:21:10.359Z,80.80
2018-10-21T00:22:10.716Z,49.70
2018-10-21T00:23:10.901Z,124.90
2018-10-21T00:24:36.544Z,28.20
2018-10-21T00:27:23.089Z,22.00
2018-10-21T00:28:06.449Z,13.50
2018-10-21T00:28:57.018Z,27.00
2018-10-21T00:31:14.875Z,28.20
2018-10-21T00:32:14.853Z,24.50
2018-10-21T00:33:14.797Z,15.50
2018-10-21T00:34:14.525Z,36.90
2018-10-21T00:35:14.524Z,45.10
2018-10-21T00:36:25.690Z,46.80
2018-10-21T00:37:14.670Z,24.90
2018-10-21T00:41:42.986Z,22.60
2018-10-21T00:42:43.679Z,20.40
2018-10-21T00:43:52.943Z,38.80
2018-10-21T00:44:53.624Z,33.50
2018-10-21T00:45:44.251Z,45.40
2018-10-21T00:46:54.791Z,19.10
2018-10-21T00:47:53.652Z,38.60
2018-10-21T00:48:42.934Z,40.80
2018-10-21T00:49:42.793Z,26.20
2018-10-21T00:50:43.572Z,19.80
2018-10-21T00:51:42.839Z,24.90
2018-10-21T00:52:42.461Z,14.30
2018-10-21T00:53:42.462Z,23.10
2018-10-21T00:56:08.804Z,17.60
2018-10-21T00:57:17.540Z,18.70
2018-10-21T01:03:38.538Z,26.80
2018-10-21T01:07:58.550Z,39.70
2018-10-21T01:09:10.574Z,28.80
2018-10-21T01:15:31.081Z,14.20
2018-10-21T01:18:35.690Z,74.60
2018-10-21T01:22:53.740Z,77.90
2018-10-21T01:23:34.054Z,38.80
2018-10-21T01:24:50.531Z,38.70
2018-10-21T01:27:22.072Z,40.80
2018-10-21T01:30:20.718Z,11.40
2018-10-21T01:31:33.190Z,31.30
2018-10-21T01:32:41.018Z,31.70
2018-10-21T01:33:22.240Z,50.20
2018-10-21T01:35:49.165Z,16.40
2018-10-21T01:36:53.867Z,28.60
2018-10-21T01:39:20.712Z,9.10
2018-10-21T01:42:10.461Z,31.60
2018-10-21T01:43:20.366Z,27.00
2018-10-21T01:44:10.874Z,29.90
2018-10-21T01:49:34.507Z,52.70
2018-10-21T01:52:17.548Z,18.70
2018-10-21T01:53:28.509Z,26.00
2018-10-21T01:57:54.363Z,10.10
2018-10-21T02:00:12.772Z,21.30
2018-10-21T02:03:43.050Z,30.90
2018-10-21T02:04:44.423Z,47.70
2018-10-21T02:06:27.387Z,19.30
2018-10-21T02:06:44.311Z,28.70
2018-10-21T02:08:00.178Z,35.50
2018-10-21T02:08:54.721Z,72.00
2018-10-21T02:13:11.650Z,30.60
2018-10-21T02:14:18.534Z,66.80
2018-10-21T02:15:20.183Z,26.50
2018-10-21T02:16:17.125Z,18.20
2018-10-21T02:17:09.061Z,13.80
2018-10-21T02:18:08.978Z,16.80
2018-10-21T02:19:07.499Z,22.40
2018-10-21T02:20:08.011Z,15.80
2018-10-21T02:21:08.679Z,12.80
2018-10-21T02:24:50.085Z,13.80
2018-10-21T02:27:10.235Z,20.00
2018-10-21T02:28:21.372Z,27.10
2018-10-21T02:29:10.139Z,15.80
2018-10-21T02:30:24.556Z,17.00
2018-10-21T02:31:10.103Z,19.00
2018-10-21T02:32:28.992Z,12.00
2018-10-21T02:33:25.549Z,18.90
2018-10-21T02:34:11.577Z,31.70
2018-10-21T02:35:24.043Z,36.80
2018-10-21T02:36:22.219Z,36.70
2018-10-21T02:37:10.050Z,24.40
2018-10-21T02:38:12.704Z,24.80
2018-10-21T02:39:20.670Z,13.60
2018-10-21T02:40:25.455Z,22.50
2018-10-21T02:41:10.733Z,15.10
2018-10-21T02:44:28.329Z,11.60
2018-10-21T02:46:46.067Z,38.00
2018-10-21T02:47:47.309Z,49.80
2018-10-21T02:48:46.072Z,21.10
2018-10-21T02:51:40.099Z,21.70
2018-10-21T02:57:02.786Z,9.60
2018-10-21T03:00:20.974Z,10.90
2018-10-21T03:02:34.250Z,10.20
2018-10-21T03:03:33.799Z,13.40
2018-10-21T03:04:34.156Z,18.80
2018-10-21T03:05:45.840Z,16.10
2018-10-21T03:06:33.908Z,16.30
2018-10-21T03:07:45.724Z,15.00
2018-10-21T03:08:34.140Z,14.00
2018-10-21T03:09:44.031Z,16.80
2018-10-21T03:10:55.415Z,15.80
2018-10-21T03:11:33.541Z,20.40
2018-10-21T03:12:43.690Z,13.80
2018-10-21T03:13:33.759Z,16.10
2018-10-21T03:14:51.089Z,19.80
2018-10-21T03:15:33.525Z,15.90
2018-10-21T03:16:33.784Z,13.90
2018-10-21T03:17:33.365Z,12.80
2018-10-21T03:18:33.523Z,21.50
2018-10-21T03:19:47.648Z,14.20
2018-10-21T03:20:33.473Z,15.00
2018-10-21T03:23:06.422Z,15.00
2018-10-21T03:26:11.223Z,32.10
2018-10-21T03:27:22.425Z,14.60
2018-10-21T03:29:28.635Z,14.50
2018-10-21T03:30:45.667Z,20.90
2018-10-21T03:33:12.384Z,14.00
2018-10-21T03:35:49.998Z,20.20
2018-10-21T03:37:51.037Z,10.50
2018-10-21T03:40:40.853Z,11.00
2018-10-21T03:44:56.522Z,15.10
2018-10-21T03:45:56.565Z,17.20
2018-10-21T03:49:01.569Z,21.30
2018-10-21T03:51:21.582Z,21.80
2018-10-21T03:52:37.872Z,17.00
2018-10-21T03:58:12.871Z,17.90
2018-10-21T04:03:44.581Z,13.40
2018-10-21T04:11:04.375Z,12.90
2018-10-21T04:13:09.569Z,21.50
2018-10-21T04:14:21.367Z,24.20
2018-10-21T04:17:12.622Z,42.10
2018-10-21T04:19:42.533Z,13.50
2018-10-21T04:24:09.460Z,16.20
2018-10-21T04:27:02.201Z,16.70
2018-10-21T04:27:58.162Z,66.10
2018-10-21T04:28:58.566Z,49.90
2018-10-21T04:29:58.331Z,73.60
2018-10-21T04:33:37.896Z,12.30
2018-10-21T04:37:21.864Z,20.80
2018-10-21T04:38:18.649Z,28.10
2018-10-21T04:42:10.387Z,17.60
2018-10-21T04:44:21.866Z,23.80
2018-10-21T04:47:25.285Z,32.70
2018-10-21T04:48:36.660Z,22.40
2018-10-21T04:49:25.151Z,30.70
2018-10-21T04:50:25.640Z,32.10
2018-10-21T04:53:31.761Z,15.40
2018-10-21T04:59:08.157Z,16.10
2018-10-21T04:59:59.692Z,16.00
2018-10-21T05:04:05.683Z,29.20
2018-10-21T05:07:02.445Z,20.70
2018-10-21T05:08:09.020Z,22.00
2018-10-21T05:12:52.507Z,13.90
2018-10-21T05:14:57.384Z,20.10
2018-10-21T05:15:57.324Z,41.20
2018-10-21T05:19:34.635Z,14.20
2018-10-21T05:20:23.720Z,16.10
2018-10-21T05:21:38.281Z,24.80
2018-10-21T05:23:40.605Z,27.60
2018-10-21T05:24:38.658Z,21.70
2018-10-21T05:25:52.692Z,18.10
2018-10-21T05:26:38.407Z,22.40
2018-10-21T05:27:39.469Z,19.10
2018-10-21T05:28:39.082Z,20.20
2018-10-21T05:29:39.392Z,18.50
2018-10-21T05:30:38.386Z,18.60
2018-10-21T05:31:38.335Z,19.60
2018-10-21T05:32:38.372Z,30.40
2018-10-21T05:33:38.316Z,21.90
2018-10-21T05:34:38.410Z,52.50
2018-10-21T05:35:38.482Z,19.20
2018-10-21T05:36:40.025Z,21.10
2018-10-21T05:37:38.225Z,89.70
2018-10-21T05:38:38.284Z,16.20
2018-10-21T05:39:38.226Z,23.80
2018-10-21T05:40:38.333Z,19.40
2018-10-21T05:41:41.022Z,17.40
2018-10-21T05:42:39.321Z,18.90
2018-10-21T05:43:38.154Z,20.60
2018-10-21T05:44:39.158Z,21.50
2018-10-21T05:45:38.160Z,20.90
2018-10-21T05:46:38.105Z,26.50
2018-10-21T05:47:38.105Z,28.00
2018-10-21T05:48:38.122Z,32.80
2018-10-21T05:49:39.112Z,29.90
2018-10-21T05:50:39.106Z,42.00
2018-10-21T05:51:38.064Z,24.00
2018-10-21T05:52:38.045Z,25.80
2018-10-21T05:53:38.081Z,27.50
2018-10-21T05:54:39.965Z,18.70
2018-10-21T05:57:00.245Z,27.20
2018-10-21T05:57:51.761Z,30.80
2018-10-21T05:58:51.429Z,30.00
2018-10-21T05:59:51.525Z,25.00
2018-10-21T06:00:52.007Z,25.50
2018-10-21T06:01:51.366Z,21.50
2018-10-21T06:02:52.539Z,48.60
2018-10-21T06:03:51.392Z,22.00
2018-10-21T06:04:51.269Z,20.10
2018-10-21T06:06:01.331Z,20.20
2018-10-21T06:06:51.507Z,29.60
2018-10-21T06:07:51.421Z,62.50
2018-10-21T06:08:51.328Z,25.10
2018-10-21T06:09:51.375Z,75.30
2018-10-21T06:10:51.256Z,38.50
2018-10-21T06:11:51.245Z,28.70
2018-10-21T06:12:51.205Z,36.80
2018-10-21T06:13:51.154Z,42.90
2018-10-21T06:14:51.177Z,43.40
2018-10-21T06:15:51.254Z,22.70
2018-10-21T06:16:51.143Z,21.10
2018-10-21T06:17:51.220Z,26.90
2018-10-21T06:18:51.086Z,37.40
2018-10-21T06:19:51.091Z,21.30
2018-10-21T06:20:51.052Z,23.50
2018-10-21T06:21:51.077Z,35.50
2018-10-21T06:22:51.068Z,40.30
2018-10-21T06:23:53.143Z,22.70
2018-10-21T06:24:52.056Z,23.80
2018-10-21T06:25:50.977Z,22.10
2018-10-21T06:26:51.031Z,49.30
2018-10-21T06:27:51.980Z,27.70
2018-10-21T06:28:50.977Z,27.40
2018-10-21T06:29:51.027Z,38.10
2018-10-21T06:30:51.029Z,21.80
2018-10-21T06:31:50.957Z,21.00
2018-10-21T06:32:52.060Z,36.40
2018-10-21T06:33:50.909Z,31.40
2018-10-21T06:34:50.916Z,22.50
2018-10-21T06:35:50.890Z,29.00
2018-10-21T06:36:50.979Z,24.00
2018-10-21T06:37:50.862Z,24.30
2018-10-21T06:38:50.922Z,25.90
2018-10-21T06:39:50.860Z,27.20
2018-10-21T06:41:16.554Z,36.40
2018-10-21T06:41:50.831Z,24.50
2018-10-21T06:42:50.809Z,30.70
2018-10-21T06:43:50.836Z,23.00
2018-10-21T06:44:50.761Z,26.80
2018-10-21T06:45:50.775Z,42.40
2018-10-21T06:46:50.753Z,21.10
2018-10-21T06:47:50.768Z,29.80
2018-10-21T06:48:50.709Z,24.10
2018-10-21T06:49:51.076Z,20.20
2018-10-21T06:50:50.768Z,22.50
2018-10-21T06:51:51.506Z,27.70
2018-10-21T06:52:50.731Z,34.20
2018-10-21T06:53:50.668Z,26.20
2018-10-21T06:54:50.666Z,23.00
2018-10-21T06:55:50.683Z,44.30
2018-10-21T06:56:50.899Z,31.20
2018-10-21T06:57:50.867Z,24.90
2018-10-21T06:58:50.692Z,50.70
2018-10-21T06:59:50.636Z,21.50
2018-10-21T07:00:50.655Z,22.80
2018-10-21T07:01:50.572Z,20.40
2018-10-21T07:02:50.600Z,40.70
2018-10-21T07:03:51.542Z,72.90
2018-10-21T07:04:50.642Z,57.90
2018-10-21T07:05:50.581Z,28.50
2018-10-21T07:06:51.496Z,23.80
2018-10-21T07:07:50.512Z,33.60
2018-10-21T07:08:50.561Z,20.90
2018-10-21T07:09:50.539Z,39.40
2018-10-21T07:11:22.545Z,53.10
2018-10-21T07:11:50.493Z,54.00
2018-10-21T07:12:50.461Z,126.10
2018-10-21T07:13:51.556Z,69.40
2018-10-21T07:14:50.585Z,82.10
2018-10-21T07:15:59.648Z,25.40
2018-10-21T07:17:05.690Z,25.20
2018-10-21T07:17:51.213Z,25.10
2018-10-21T07:18:50.534Z,40.70
2018-10-21T07:19:51.339Z,56.80
2018-10-21T07:20:51.721Z,30.00
2018-10-21T07:21:50.388Z,24.00
2018-10-21T07:22:50.357Z,25.60
2018-10-21T07:23:50.340Z,80.70
2018-10-21T07:24:50.360Z,35.50
2018-10-21T07:26:01.101Z,28.70
2018-10-21T07:26:50.343Z,24.20
2018-10-21T07:27:50.329Z,39.60
2018-10-21T07:28:50.293Z,68.80
2018-10-21T07:29:50.269Z,57.40
2018-10-21T07:30:50.294Z,93.30
2018-10-21T07:31:51.055Z,194.90
2018-10-21T07:32:50.269Z,103.40
2018-10-21T07:33:50.278Z,38.70
2018-10-21T07:34:50.271Z,86.20
2018-10-21T07:35:57.090Z,44.30
2018-10-21T07:36:53.100Z,25.40
2018-10-21T07:37:50.671Z,38.20
2018-10-21T07:38:50.177Z,35.60
2018-10-21T07:39:50.189Z,71.90
2018-10-21T07:42:30.784Z,37.50
2018-10-21T07:43:01.758Z,62.40
2018-10-21T07:44:01.490Z,40.90
2018-10-21T07:45:01.403Z,26.70
2018-10-21T07:46:03.127Z,40.90
2018-10-21T07:47:01.359Z,49.90
2018-10-21T07:48:01.686Z,64.90
2018-10-21T07:49:01.412Z,35.90
2018-10-21T07:50:01.367Z,42.90
2018-10-21T07:51:01.370Z,29.30
2018-10-21T07:52:01.362Z,54.50
2018-10-21T07:53:01.357Z,59.70
2018-10-21T07:54:01.320Z,19.00
2018-10-21T07:55:01.304Z,17.70
2018-10-21T07:56:01.344Z,31.20
2018-10-21T07:57:01.273Z,32.00
2018-10-21T07:58:01.252Z,33.80
2018-10-21T07:59:03.149Z,58.40
2018-10-21T08:00:01.280Z,41.70
2018-10-21T08:01:01.298Z,108.90
2018-10-21T08:02:01.171Z,200.10
2018-10-21T08:03:01.258Z,109.20
2018-10-21T08:04:01.168Z,234.10
2018-10-21T08:05:01.162Z,69.50
2018-10-21T08:06:01.139Z,47.00
2018-10-21T08:07:01.126Z,20.10
2018-10-21T08:08:01.154Z,25.80
2018-10-21T08:09:01.108Z,21.90
2018-10-21T08:10:01.122Z,20.70
2018-10-21T08:11:01.107Z,18.20
2018-10-21T08:12:01.107Z,22.60
2018-10-21T08:13:01.050Z,27.10
2018-10-21T08:14:01.031Z,15.00
2018-10-21T08:15:01.100Z,20.20
2018-10-21T08:16:01.044Z,21.90
2018-10-21T08:17:01.028Z,22.60
2018-10-21T08:18:01.003Z,21.70
2018-10-21T08:19:01.005Z,17.80
2018-10-21T08:20:02.000Z,20.30
2018-10-21T08:21:01.010Z,22.50
2018-10-21T08:22:00.997Z,22.10
2018-10-21T08:23:02.594Z,17.50
2018-10-21T08:29:24.983Z,21.10
2018-10-21T08:30:22.875Z,26.60
2018-10-21T08:31:23.178Z,16.10
2018-10-21T08:32:22.300Z,17.60
2018-10-21T08:33:22.160Z,18.60
2018-10-21T08:34:22.169Z,12.70
2018-10-21T08:35:22.105Z,10.00
2018-10-21T08:36:22.170Z,13.10
2018-10-21T08:37:22.141Z,13.90
2018-10-21T08:38:22.113Z,12.50
2018-10-21T08:39:22.074Z,12.60
2018-10-21T08:40:23.100Z,10.80
2018-10-21T08:41:43.105Z,9.60
2018-10-21T08:42:22.101Z,8.50
2018-10-21T08:43:22.071Z,8.00
2018-10-21T08:44:23.070Z,18.00
2018-10-21T08:45:23.006Z,10.10
2018-10-21T08:46:22.122Z,9.10
2018-10-21T08:47:23.126Z,7.90
2018-10-21T08:48:22.021Z,7.70
2018-10-21T08:49:22.100Z,10.60
2018-10-21T08:50:22.996Z,8.20
2018-10-21T08:51:22.927Z,8.80
2018-10-21T08:52:21.967Z,10.30
2018-10-21T08:53:21.962Z,12.00
2018-10-21T08:54:21.911Z,7.90
2018-10-21T08:55:21.898Z,7.70
2018-10-21T08:56:42.967Z,14.60
2018-10-21T08:57:21.901Z,16.60
2018-10-21T08:58:21.902Z,13.90
2018-10-21T08:59:23.107Z,8.60
2018-10-21T09:00:21.837Z,8.70
2018-10-21T09:01:21.869Z,8.40
2018-10-21T09:02:21.869Z,7.00
2018-10-21T09:03:21.902Z,12.00
2018-10-21T09:04:22.592Z,7.90
2018-10-21T09:05:21.791Z,7.20
2018-10-21T09:06:21.821Z,7.00
2018-10-21T09:07:22.071Z,15.30
2018-10-21T09:08:21.722Z,13.90
2018-10-21T09:09:21.751Z,19.80
2018-10-21T09:10:21.880Z,20.40
2018-10-21T09:11:21.697Z,13.60
2018-10-21T09:12:22.560Z,8.90
2018-10-21T09:13:21.684Z,67.80
2018-10-21T09:14:21.706Z,59.50
2018-10-21T09:15:21.706Z,68.30
2018-10-21T09:16:22.808Z,38.40
2018-10-21T09:17:21.654Z,21.50
2018-10-21T09:18:21.638Z,65.20
2018-10-21T09:19:21.635Z,16.00
2018-10-21T09:20:21.651Z,9.10
2018-10-21T09:21:22.092Z,63.50
2018-10-21T09:22:21.620Z,35.20
2018-10-21T09:23:21.558Z,13.90
2018-10-21T09:24:21.585Z,11.30
2018-10-21T09:25:21.578Z,20.60
2018-10-21T09:26:21.586Z,10.50
2018-10-21T09:27:21.518Z,10.40
2018-10-21T09:28:21.536Z,9.10
2018-10-21T09:29:21.495Z,8.40
2018-10-21T09:30:21.522Z,10.80
2018-10-21T09:31:21.499Z,9.20
2018-10-21T09:32:21.536Z,11.50
2018-10-21T09:33:21.456Z,8.10
2018-10-21T09:34:21.438Z,14.90
2018-10-21T09:35:21.531Z,16.30
2018-10-21T09:36:21.423Z,7.80
2018-10-21T09:37:21.562Z,9.40
2018-10-21T09:38:21.432Z,12.90
2018-10-21T09:39:22.064Z,8.90
2018-10-21T09:40:21.461Z,8.60
2018-10-21T09:41:21.469Z,9.90
2018-10-21T09:42:21.361Z,10.90
2018-10-21T09:43:21.340Z,9.60
2018-10-21T09:44:21.364Z,10.90
2018-10-21T09:45:21.368Z,8.40
2018-10-21T09:46:21.314Z,8.90
2018-10-21T09:47:21.332Z,8.30
2018-10-21T09:48:21.280Z,10.70
2018-10-21T09:49:21.286Z,8.30
2018-10-21T09:50:21.277Z,8.50
2018-10-21T09:51:21.288Z,12.10
2018-10-21T09:52:21.266Z,8.30
2018-10-21T09:53:21.260Z,7.10
2018-10-21T09:54:21.232Z,10.40
2018-10-21T09:55:21.222Z,8.70
2018-10-21T09:56:28.674Z,10.10
2018-10-21T09:57:21.235Z,9.50
2018-10-21T09:58:21.277Z,7.80
2018-10-21T09:59:21.208Z,7.90
2018-10-21T10:00:21.157Z,8.70
2018-10-21T10:01:21.153Z,10.40
2018-10-21T10:02:21.213Z,7.80
2018-10-21T10:03:22.123Z,7.30
2018-10-21T10:04:21.195Z,9.10
2018-10-21T10:05:21.219Z,7.70
2018-10-21T10:06:21.125Z,11.20
2018-10-21T10:07:21.077Z,8.80
2018-10-21T10:08:22.046Z,9.10
2018-10-21T10:09:21.146Z,7.00
2018-10-21T10:10:21.043Z,6.20
2018-10-21T10:11:21.042Z,7.30
2018-10-21T10:12:21.068Z,8.70
2018-10-21T10:13:21.032Z,5.20
2018-10-21T10:14:21.580Z,6.30
2018-10-21T10:15:21.007Z,7.50
2018-10-21T10:16:21.016Z,7.50
2018-10-21T10:17:20.963Z,8.10
2018-10-21T10:18:20.998Z,6.70
2018-10-21T10:19:20.952Z,10.50
2018-10-21T10:20:20.941Z,6.40
2018-10-21T10:21:20.927Z,8.00
2018-10-21T10:22:20.927Z,5.70
2018-10-21T10:23:21.025Z,9.00
2018-10-21T10:24:20.946Z,10.90
2018-10-21T10:25:20.877Z,9.70
2018-10-21T10:26:20.899Z,9.70
2018-10-21T10:27:20.858Z,9.70
2018-10-21T10:28:20.847Z,10.30
2018-10-21T10:29:20.854Z,15.50
2018-10-21T10:30:20.923Z,8.30
2018-10-21T10:31:20.815Z,7.90
2018-10-21T10:32:20.819Z,6.30
2018-10-21T10:33:20.776Z,8.10
2018-10-21T10:34:20.769Z,5.80
2018-10-21T10:35:20.783Z,8.40
2018-10-21T10:36:20.849Z,9.40
2018-10-21T10:37:20.807Z,7.80
2018-10-21T10:38:20.734Z,7.00
2018-10-21T10:39:20.736Z,6.90
2018-10-21T10:40:20.898Z,7.60
2018-10-21T10:41:20.708Z,7.60
2018-10-21T10:42:20.800Z,6.70
2018-10-21T10:43:20.669Z,8.90
2018-10-21T10:44:20.662Z,7.80
2018-10-21T10:45:21.685Z,6.60
2018-10-21T10:46:20.687Z,7.10
2018-10-21T10:47:20.617Z,8.10
2018-10-21T10:48:20.610Z,9.60
2018-10-21T10:49:20.609Z,7.50
2018-10-21T10:50:20.597Z,5.10
2018-10-21T10:51:20.586Z,3.30
2018-10-21T10:52:20.561Z,4.20
2018-10-21T10:53:20.550Z,4.70
2018-10-21T10:54:20.621Z,3.60
2018-10-21T10:55:20.591Z,3.70
2018-10-21T10:56:20.528Z,2.60
2018-10-21T10:57:20.539Z,6.50
2018-10-21T10:58:20.500Z,3.90
2018-10-21T10:59:20.483Z,5.00
2018-10-21T11:00:20.524Z,6.70
2018-10-21T11:01:20.484Z,1.90
2018-10-21T11:02:20.459Z,11.50
2018-10-21T11:03:20.433Z,3.80
2018-10-21T11:04:20.469Z,2.40
2018-10-21T11:05:20.434Z,3.90
2018-10-21T11:06:20.452Z,2.30
2018-10-21T11:07:20.393Z,6.40
2018-10-21T11:08:20.392Z,5.00
2018-10-21T11:09:20.381Z,4.00
2018-10-21T11:10:20.354Z,8.80
2018-10-21T11:11:20.384Z,6.50
2018-10-21T11:12:20.343Z,3.10
2018-10-21T11:13:20.336Z,2.40
2018-10-21T11:14:20.354Z,10.70
2018-10-21T11:15:20.306Z,6.00
2018-10-21T11:16:20.293Z,4.40
2018-10-21T11:17:20.327Z,8.40
2018-10-21T11:18:20.267Z,6.20
2018-10-21T11:19:20.278Z,3.50
2018-10-21T11:20:20.256Z,4.50
2018-10-21T11:21:20.231Z,5.90
2018-10-21T11:22:20.262Z,5.30
2018-10-21T11:23:20.257Z,5.80
2018-10-21T11:24:20.198Z,6.30
2018-10-21T11:25:20.235Z,3.50
2018-10-21T11:26:20.195Z,4.80
2018-10-21T11:27:20.200Z,6.10
2018-10-21T11:28:20.369Z,4.80
2018-10-21T11:29:20.548Z,6.50
2018-10-21T11:30:20.158Z,4.70
2018-10-21T11:31:20.117Z,4.20
2018-10-21T11:32:20.135Z,4.10
2018-10-21T11:33:20.125Z,5.40
2018-10-21T11:34:20.084Z,5.50
2018-10-21T11:35:20.083Z,4.80
2018-10-21T11:36:20.053Z,7.20
2018-10-21T11:37:20.187Z,5.40
2018-10-21T11:38:20.028Z,6.30
2018-10-21T11:39:20.029Z,7.80
2018-10-21T11:40:20.130Z,7.40
2018-10-21T11:41:20.052Z,20.90
2018-10-21T11:42:20.049Z,5.10
2018-10-21T11:43:19.992Z,6.70
2018-10-21T11:44:19.978Z,5.40
2018-10-21T11:45:19.970Z,7.70
2018-10-21T11:46:19.995Z,5.60
2018-10-21T11:47:19.967Z,5.10
2018-10-21T11:48:19.955Z,7.60
2018-10-21T11:49:19.915Z,12.40
2018-10-21T11:50:19.946Z,4.10
2018-10-21T11:51:19.890Z,5.20
2018-10-21T11:52:20.048Z,6.40
2018-10-21T11:53:19.866Z,2.90
2018-10-21T11:54:19.875Z,7.50
2018-10-21T11:55:19.841Z,5.30
2018-10-21T11:56:19.862Z,5.80
2018-10-21T11:57:19.812Z,6.80
2018-10-21T11:58:19.804Z,4.00
2018-10-21T11:59:19.831Z,5.50
2018-10-21T12:00:19.861Z,4.20
2018-10-21T12:01:19.782Z,6.20
2018-10-21T12:02:19.764Z,8.80
2018-10-21T12:03:19.781Z,3.60
2018-10-21T12:04:19.757Z,4.80
2018-10-21T12:05:19.744Z,5.30
2018-10-21T12:06:19.720Z,4.50
2018-10-21T12:07:19.707Z,3.60
2018-10-21T12:08:19.704Z,5.10
2018-10-21T12:09:19.715Z,7.20
2018-10-21T12:10:19.680Z,3.80
2018-10-21T12:11:27.137Z,4.70
2018-10-21T12:12:19.692Z,4.50
2018-10-21T12:13:19.641Z,3.10
2018-10-21T12:14:19.651Z,4.10
2018-10-21T12:15:19.658Z,7.50
2018-10-21T12:16:19.817Z,6.20
2018-10-21T12:17:19.602Z,7.20
2018-10-21T12:18:19.604Z,10.60
2018-10-21T12:19:19.603Z,6.00
2018-10-21T12:20:19.575Z,4.80
2018-10-21T12:21:19.550Z,4.30
2018-10-21T12:22:19.570Z,5.70
2018-10-21T12:23:19.572Z,6.60
2018-10-21T12:24:19.509Z,7.00
2018-10-21T12:25:19.633Z,6.10
2018-10-21T12:26:19.510Z,4.80
2018-10-21T12:27:19.521Z,5.30
2018-10-21T12:28:19.583Z,7.80
2018-10-21T12:29:19.508Z,4.20
2018-10-21T12:30:19.442Z,4.30
2018-10-21T12:31:19.606Z,4.70
2018-10-21T12:32:19.420Z,7.80
2018-10-21T12:33:19.412Z,7.00
2018-10-21T12:34:19.398Z,3.70
2018-10-21T12:35:19.475Z,4.40
2018-10-21T12:36:19.444Z,3.00
2018-10-21T12:37:19.366Z,3.40
2018-10-21T12:38:19.366Z,5.20
2018-10-21T12:39:19.352Z,4.20
2018-10-21T12:40:19.483Z,6.10
2018-10-21T12:41:19.326Z,6.30
2018-10-21T12:42:19.324Z,3.60
2018-10-21T12:43:19.317Z,6.50
2018-10-21T12:44:19.293Z,5.80
2018-10-21T12:45:19.289Z,9.20
2018-10-21T12:46:19.286Z,7.10
2018-10-21T12:47:19.290Z,4.80
2018-10-21T12:48:19.267Z,4.10
2018-10-21T12:49:19.346Z,3.70
2018-10-21T12:50:19.239Z,4.70
2018-10-21T12:51:19.215Z,5.00
2018-10-21T12:52:19.200Z,4.70
2018-10-21T12:53:19.234Z,10.30
2018-10-21T12:54:19.175Z,5.60
2018-10-21T12:55:19.238Z,6.10
2018-10-21T12:56:19.145Z,6.30
2018-10-21T12:57:19.138Z,7.90
2018-10-21T12:58:19.309Z,8.00
2018-10-21T12:59:19.132Z,5.90
2018-10-21T13:00:19.120Z,6.90
2018-10-21T13:01:19.093Z,5.30
2018-10-21T13:02:19.157Z,4.90
2018-10-21T13:03:19.095Z,5.90
2018-10-21T13:04:19.168Z,4.50
2018-10-21T13:05:19.082Z,4.70
2018-10-21T13:06:19.039Z,5.20
2018-10-21T13:07:19.161Z,3.90
2018-10-21T13:08:19.023Z,3.90
2018-10-21T13:09:19.044Z,4.60
2018-10-21T13:10:19.015Z,4.30
2018-10-21T13:11:18.988Z,3.70
2018-10-21T13:12:18.984Z,7.00
2018-10-21T13:13:18.994Z,5.40
2018-10-21T13:14:18.978Z,4.50
2018-10-21T13:15:18.944Z,8.40
2018-10-21T13:16:18.945Z,4.30
2018-10-21T13:17:18.916Z,3.60
2018-10-21T13:18:18.932Z,5.20
2018-10-21T13:19:18.935Z,5.50
2018-10-21T13:20:18.903Z,3.60
2018-10-21T13:21:18.890Z,9.00
2018-10-21T13:22:18.925Z,4.90
2018-10-21T13:23:18.853Z,6.30
2018-10-21T13:24:18.856Z,7.60
2018-10-21T13:25:18.879Z,4.50
2018-10-21T13:26:18.818Z,6.30
2018-10-21T13:27:18.821Z,5.20
2018-10-21T13:28:18.884Z,5.90
2018-10-21T13:29:19.077Z,5.60
2018-10-21T13:30:18.769Z,3.30
2018-10-21T13:31:18.866Z,4.00
2018-10-21T13:32:18.793Z,4.50
2018-10-21T13:33:18.764Z,4.30
2018-10-21T13:34:18.837Z,6.00
2018-10-21T13:35:18.739Z,3.50
2018-10-21T13:36:18.707Z,3.50
2018-10-21T13:37:18.699Z,5.10
2018-10-21T13:38:18.706Z,5.70
2018-10-21T13:39:18.688Z,4.50
2018-10-21T13:40:18.804Z,3.90
2018-10-21T13:41:18.673Z,3.90
2018-10-21T13:42:18.641Z,7.40
2018-10-21T13:43:18.691Z,6.60
2018-10-21T13:44:18.653Z,5.90
2018-10-21T13:45:18.627Z,4.00
2018-10-21T13:46:18.647Z,5.50
2018-10-21T13:47:18.585Z,5.80
2018-10-21T13:48:18.580Z,4.30
2018-10-21T13:49:18.567Z,3.20
2018-10-21T13:50:18.554Z,3.90
2018-10-21T13:51:18.570Z,3.20
2018-10-21T13:52:18.658Z,3.30
2018-10-21T13:53:18.560Z,7.60
2018-10-21T13:54:18.509Z,3.50
2018-10-21T13:55:18.531Z,4.00
2018-10-21T13:56:18.502Z,3.90
2018-10-21T13:57:18.471Z,3.40
2018-10-21T13:58:18.477Z,2.90
2018-10-21T13:59:18.520Z,3.90
2018-10-21T14:00:18.469Z,5.60
2018-10-21T14:01:18.475Z,3.80
2018-10-21T14:02:18.438Z,4.80
2018-10-21T14:03:18.402Z,6.80
2018-10-21T14:04:18.493Z,4.70
2018-10-21T14:05:18.390Z,2.80
2018-10-21T14:06:18.376Z,5.00
2018-10-21T14:07:18.410Z,2.40
2018-10-21T14:08:18.396Z,4.30
2018-10-21T14:09:18.335Z,4.60
2018-10-21T14:10:18.516Z,4.50
2018-10-21T14:11:18.329Z,3.60
2018-10-21T14:12:18.297Z,6.20
2018-10-21T14:13:18.367Z,8.20
2018-10-21T14:14:18.311Z,4.80
2018-10-21T14:15:18.294Z,3.00
2018-10-21T14:16:18.393Z,7.10
2018-10-21T14:17:18.238Z,7.80
2018-10-21T14:18:18.266Z,3.80
2018-10-21T14:19:18.233Z,5.60
2018-10-21T14:20:18.202Z,3.10
2018-10-21T14:21:18.303Z,4.50
2018-10-21T14:22:18.337Z,4.50
2018-10-21T14:23:18.171Z,3.80
2018-10-21T14:24:18.278Z,5.70
2018-10-21T14:25:18.156Z,3.60
2018-10-21T14:26:18.145Z,10.90
2018-10-21T14:27:18.143Z,7.20
2018-10-21T14:28:18.131Z,4.30
2018-10-21T14:29:18.630Z,5.50
2018-10-21T14:30:18.162Z,5.60
2018-10-21T14:31:18.083Z,3.60
2018-10-21T14:32:18.118Z,4.40
2018-10-21T14:33:18.104Z,5.30
2018-10-21T14:34:18.051Z,5.30
2018-10-21T14:35:18.048Z,3.80
2018-10-21T14:36:18.182Z,3.10
2018-10-21T14:37:18.062Z,3.90
2018-10-21T14:38:18.043Z,4.20
2018-10-21T14:39:18.053Z,4.10
2018-10-21T14:40:17.993Z,3.50
2018-10-21T14:41:17.969Z,3.50
2018-10-21T14:42:18.044Z,4.00
2018-10-21T14:43:17.979Z,4.00
2018-10-21T14:44:17.989Z,8.50
2018-10-21T14:45:18.040Z,9.50
2018-10-21T14:46:17.913Z,5.20
2018-10-21T14:47:17.904Z,4.60
2018-10-21T14:48:17.988Z,4.50
2018-10-21T14:49:17.906Z,4.30
2018-10-21T14:50:17.877Z,6.10
2018-10-21T14:51:17.964Z,5.10
2018-10-21T14:52:17.850Z,5.00
2018-10-21T14:53:17.885Z,4.50
2018-10-21T14:54:17.855Z,4.60
2018-10-21T14:55:17.912Z,2.50
2018-10-21T14:56:17.819Z,3.60
2018-10-21T14:57:17.814Z,5.30
2018-10-21T14:58:17.816Z,2.80
2018-10-21T14:59:17.795Z,4.00
2018-10-21T15:00:17.895Z,4.40
2018-10-21T15:01:17.744Z,3.80
2018-10-21T15:02:17.947Z,4.50
2018-10-21T15:03:17.741Z,4.40
2018-10-21T15:04:17.817Z,6.50
2018-10-21T15:05:17.714Z,4.40
2018-10-21T15:06:17.793Z,3.40
2018-10-21T15:07:17.683Z,4.40
2018-10-21T15:08:17.766Z,7.70
2018-10-21T15:09:17.678Z,4.00
2018-10-21T15:10:17.738Z,5.00
2018-10-21T15:11:17.630Z,5.40
2018-10-21T15:12:17.706Z,6.40
2018-10-21T15:13:17.613Z,7.90
2018-10-21T15:14:17.693Z,7.30
2018-10-21T15:15:17.581Z,10.70
2018-10-21T15:16:17.702Z,6.40
2018-10-21T15:17:17.567Z,4.80
2018-10-21T15:18:17.673Z,10.50
2018-10-21T15:19:17.542Z,10.30
2018-10-21T15:20:17.565Z,10.50
2018-10-21T15:21:17.607Z,6.50
2018-10-21T15:22:17.580Z,5.70
2018-10-21T15:23:17.544Z,4.00
2018-10-21T15:24:17.503Z,16.60
2018-10-21T15:25:17.491Z,18.70
2018-10-21T15:26:17.719Z,12.80
2018-10-21T15:27:17.499Z,10.70
2018-10-21T15:28:17.499Z,15.80
2018-10-21T15:29:17.533Z,8.40
2018-10-21T15:30:17.525Z,15.40
2018-10-21T15:31:17.487Z,9.50
2018-10-21T15:32:17.489Z,8.90
2018-10-21T15:33:17.382Z,15.00
2018-10-21T15:34:17.523Z,12.20
2018-10-21T15:35:17.372Z,15.60
2018-10-21T15:36:17.359Z,12.40
2018-10-21T15:37:17.414Z,7.70
2018-10-21T15:38:17.414Z,54.20
2018-10-21T15:39:17.325Z,39.40
2018-10-21T15:40:17.447Z,45.40
2018-10-21T15:41:17.309Z,27.10
2018-10-21T15:42:17.282Z,15.80
2018-10-21T15:43:17.313Z,7.40